sensor_id;sensor_type;location;lat;lon;timestamp;temperature;humidity
12504;DHT22;6316;48.118;-1.690;2024-03-08T00:01:49;9.80;99.90
12504;DHT22;6316;48.118;-1.690;2024-03-08T00:04:15;9.70;99.90
12504;DHT22;6316;48.118;-1.690;2024-03-08T00:06:41;9.70;99.90
12504;DHT22;6316;48.118;-1.690;2024-03-08T00:09:07;9.70;99.90
12504;DHT22;6316;48.118;-1.690;2024-03-08T00:11:34;9.70;99.90
12504;DHT22;6316;48.118;-1.690;2024-03-08T00:14:00;9.60;99.90
12504;DHT22;6316;48.118;-1.690;2024-03-08T00:16:26;9.70;99.90
12504;DHT22;6316;48.118;-1.690;2024-03-08T00:18:51;9.60;99.90
12504;DHT22;6316;48.118;-1.690;2024-03-08T00:21:17;9.60;99.90
12504;DHT22;6316;48.118;-1.690;2024-03-08T00:23:43;9.60;99.90
12504;DHT22;6316;48.118;-1.690;2024-03-08T00:26:08;9.60;99.90
12504;DHT22;6316;48.118;-1.690;2024-03-08T00:28:34;9.60;99.90
12504;DHT22;6316;48.118;-1.690;2024-03-08T00:31:00;9.50;99.90
12504;DHT22;6316;48.118;-1.690;2024-03-08T00:33:26;9.50;99.90
12504;DHT22;6316;48.118;-1.690;2024-03-08T00:35:55;9.50;99.90
12504;DHT22;6316;48.118;-1.690;2024-03-08T00:38:21;9.50;99.90
12504;DHT22;6316;48.118;-1.690;2024-03-08T00:40:47;9.50;99.90
12504;DHT22;6316;48.118;-1.690;2024-03-08T00:43:12;9.50;99.90
12504;DHT22;6316;48.118;-1.690;2024-03-08T00:45:38;9.40;99.90
12504;DHT22;6316;48.118;-1.690;2024-03-08T00:48:07;9.30;99.90
12504;DHT22;6316;48.118;-1.690;2024-03-08T00:50:32;9.40;99.90
12504;DHT22;6316;48.118;-1.690;2024-03-08T00:52:59;9.40;99.90
12504;DHT22;6316;48.118;-1.690;2024-03-08T00:55:25;9.30;99.90
12504;DHT22;6316;48.118;-1.690;2024-03-08T00:57:51;9.30;99.90
12504;DHT22;6316;48.118;-1.690;2024-03-08T01:00:18;9.30;99.90
12504;DHT22;6316;48.118;-1.690;2024-03-08T01:02:45;9.30;99.90
12504;DHT22;6316;48.118;-1.690;2024-03-08T01:05:11;9.30;99.90
12504;DHT22;6316;48.118;-1.690;2024-03-08T01:07:37;9.30;99.90
12504;DHT22;6316;48.118;-1.690;2024-03-08T01:10:03;9.20;99.90
12504;DHT22;6316;48.118;-1.690;2024-03-08T01:12:29;9.20;99.90
12504;DHT22;6316;48.118;-1.690;2024-03-08T01:14:55;9.20;99.90
12504;DHT22;6316;48.118;-1.690;2024-03-08T01:17:22;9.20;99.90
12504;DHT22;6316;48.118;-1.690;2024-03-08T01:19:47;9.20;99.90
12504;DHT22;6316;48.118;-1.690;2024-03-08T01:22:13;9.20;99.90
12504;DHT22;6316;48.118;-1.690;2024-03-08T01:24:39;9.20;99.90
12504;DHT22;6316;48.118;-1.690;2024-03-08T01:27:05;9.20;99.90
12504;DHT22;6316;48.118;-1.690;2024-03-08T01:29:30;9.10;99.90
12504;DHT22;6316;48.118;-1.690;2024-03-08T01:31:56;9.20;99.90
12504;DHT22;6316;48.118;-1.690;2024-03-08T01:34:22;9.20;99.90
12504;DHT22;6316;48.118;-1.690;2024-03-08T01:36:51;9.20;99.90
12504;DHT22;6316;48.118;-1.690;2024-03-08T01:39:16;9.10;99.90
12504;DHT22;6316;48.118;-1.690;2024-03-08T01:41:42;9.20;99.90
12504;DHT22;6316;48.118;-1.690;2024-03-08T01:44:08;9.20;99.90
12504;DHT22;6316;48.118;-1.690;2024-03-08T01:46:35;9.10;99.90
12504;DHT22;6316;48.118;-1.690;2024-03-08T01:49:01;9.10;99.90
12504;DHT22;6316;48.118;-1.690;2024-03-08T01:51:28;9.10;99.90
12504;DHT22;6316;48.118;-1.690;2024-03-08T01:53:56;9.10;99.90
12504;DHT22;6316;48.118;-1.690;2024-03-08T01:56:23;9.10;99.90
12504;DHT22;6316;48.118;-1.690;2024-03-08T01:58:50;9.10;99.90
12504;DHT22;6316;48.118;-1.690;2024-03-08T02:01:17;9.10;99.90
12504;DHT22;6316;48.118;-1.690;2024-03-08T02:03:44;9.10;99.90
12504;DHT22;6316;48.118;-1.690;2024-03-08T02:06:13;9.10;99.90
12504;DHT22;6316;48.118;-1.690;2024-03-08T02:08:43;9.10;99.90
12504;DHT22;6316;48.118;-1.690;2024-03-08T02:11:12;9.10;99.90
12504;DHT22;6316;48.118;-1.690;2024-03-08T02:13:38;9.10;99.90
12504;DHT22;6316;48.118;-1.690;2024-03-08T02:16:04;9.10;99.90
12504;DHT22;6316;48.118;-1.690;2024-03-08T02:18:33;9.10;99.90
12504;DHT22;6316;48.118;-1.690;2024-03-08T02:21:00;9.00;99.90
12504;DHT22;6316;48.118;-1.690;2024-03-08T02:23:27;9.00;99.90
12504;DHT22;6316;48.118;-1.690;2024-03-08T02:25:55;9.00;99.90
12504;DHT22;6316;48.118;-1.690;2024-03-08T02:28:21;9.00;99.90
12504;DHT22;6316;48.118;-1.690;2024-03-08T02:30:48;8.90;99.90
12504;DHT22;6316;48.118;-1.690;2024-03-08T02:33:14;8.90;99.90
12504;DHT22;6316;48.118;-1.690;2024-03-08T02:35:46;8.90;99.90
12504;DHT22;6316;48.118;-1.690;2024-03-08T02:38:16;8.90;99.90
12504;DHT22;6316;48.118;-1.690;2024-03-08T02:40:48;8.80;99.90
12504;DHT22;6316;48.118;-1.690;2024-03-08T02:43:15;8.80;99.90
12504;DHT22;6316;48.118;-1.690;2024-03-08T02:45:41;8.80;99.90
12504;DHT22;6316;48.118;-1.690;2024-03-08T02:48:11;8.80;99.90
12504;DHT22;6316;48.118;-1.690;2024-03-08T02:50:37;8.80;99.90
12504;DHT22;6316;48.118;-1.690;2024-03-08T02:53:05;8.70;99.90
12504;DHT22;6316;48.118;-1.690;2024-03-08T02:55:31;8.70;99.90
12504;DHT22;6316;48.118;-1.690;2024-03-08T02:57:57;8.70;99.90
12504;DHT22;6316;48.118;-1.690;2024-03-08T03:00:23;8.70;99.90
12504;DHT22;6316;48.118;-1.690;2024-03-08T03:02:51;8.60;99.90
12504;DHT22;6316;48.118;-1.690;2024-03-08T03:05:24;8.70;99.90
12504;DHT22;6316;48.118;-1.690;2024-03-08T03:07:50;8.60;99.90
12504;DHT22;6316;48.118;-1.690;2024-03-08T03:10:19;8.60;99.90
12504;DHT22;6316;48.118;-1.690;2024-03-08T03:12:45;8.60;99.90
12504;DHT22;6316;48.118;-1.690;2024-03-08T03:15:12;8.50;99.90
12504;DHT22;6316;48.118;-1.690;2024-03-08T03:17:38;8.50;99.90
12504;DHT22;6316;48.118;-1.690;2024-03-08T03:20:06;8.50;99.90
12504;DHT22;6316;48.118;-1.690;2024-03-08T03:22:36;8.50;99.90
12504;DHT22;6316;48.118;-1.690;2024-03-08T03:25:03;8.50;99.90
12504;DHT22;6316;48.118;-1.690;2024-03-08T03:27:32;8.50;99.90
12504;DHT22;6316;48.118;-1.690;2024-03-08T03:29:58;8.40;99.90
12504;DHT22;6316;48.118;-1.690;2024-03-08T03:32:24;8.50;99.90
12504;DHT22;6316;48.118;-1.690;2024-03-08T03:34:49;8.40;99.90
12504;DHT22;6316;48.118;-1.690;2024-03-08T03:37:19;8.40;99.90
12504;DHT22;6316;48.118;-1.690;2024-03-08T03:39:45;8.40;99.90
12504;DHT22;6316;48.118;-1.690;2024-03-08T03:42:18;8.40;99.90
12504;DHT22;6316;48.118;-1.690;2024-03-08T03:44:47;8.40;99.90
12504;DHT22;6316;48.118;-1.690;2024-03-08T03:47:16;8.40;99.90
12504;DHT22;6316;48.118;-1.690;2024-03-08T03:49:42;8.40;99.90
12504;DHT22;6316;48.118;-1.690;2024-03-08T03:52:08;8.40;99.90
12504;DHT22;6316;48.118;-1.690;2024-03-08T03:54:34;8.40;99.90
12504;DHT22;6316;48.118;-1.690;2024-03-08T03:57:00;8.40;99.90
12504;DHT22;6316;48.118;-1.690;2024-03-08T03:59:26;8.40;99.90
12504;DHT22;6316;48.118;-1.690;2024-03-08T04:01:55;8.30;99.90
12504;DHT22;6316;48.118;-1.690;2024-03-08T04:04:21;8.30;99.90
12504;DHT22;6316;48.118;-1.690;2024-03-08T04:06:47;8.30;99.90
12504;DHT22;6316;48.118;-1.690;2024-03-08T04:09:13;8.30;99.90
12504;DHT22;6316;48.118;-1.690;2024-03-08T04:11:39;8.20;99.90
12504;DHT22;6316;48.118;-1.690;2024-03-08T04:14:05;8.30;99.90
12504;DHT22;6316;48.118;-1.690;2024-03-08T04:16:32;8.20;99.90
12504;DHT22;6316;48.118;-1.690;2024-03-08T04:18:58;8.30;99.90
12504;DHT22;6316;48.118;-1.690;2024-03-08T04:21:24;8.20;99.90
12504;DHT22;6316;48.118;-1.690;2024-03-08T04:23:49;8.20;99.90
12504;DHT22;6316;48.118;-1.690;2024-03-08T04:26:15;8.30;99.90
12504;DHT22;6316;48.118;-1.690;2024-03-08T04:28:41;8.20;99.90
12504;DHT22;6316;48.118;-1.690;2024-03-08T04:31:07;8.20;99.90
12504;DHT22;6316;48.118;-1.690;2024-03-08T04:33:32;8.20;99.90
12504;DHT22;6316;48.118;-1.690;2024-03-08T04:36:01;8.20;99.90
12504;DHT22;6316;48.118;-1.690;2024-03-08T04:38:26;8.30;99.90
12504;DHT22;6316;48.118;-1.690;2024-03-08T04:40:52;8.20;99.90
12504;DHT22;6316;48.118;-1.690;2024-03-08T04:43:18;8.30;99.90
12504;DHT22;6316;48.118;-1.690;2024-03-08T04:45:46;8.30;99.90
12504;DHT22;6316;48.118;-1.690;2024-03-08T04:48:11;8.30;99.90
12504;DHT22;6316;48.118;-1.690;2024-03-08T04:50:37;8.30;99.90
12504;DHT22;6316;48.118;-1.690;2024-03-08T04:53:03;8.20;99.90
12504;DHT22;6316;48.118;-1.690;2024-03-08T04:55:34;8.30;99.90
12504;DHT22;6316;48.118;-1.690;2024-03-08T04:57:59;8.40;99.90
12504;DHT22;6316;48.118;-1.690;2024-03-08T05:00:25;8.20;99.90
12504;DHT22;6316;48.118;-1.690;2024-03-08T05:02:51;8.20;99.90
12504;DHT22;6316;48.118;-1.690;2024-03-08T05:05:19;8.20;99.90
12504;DHT22;6316;48.118;-1.690;2024-03-08T05:07:44;8.20;99.90
12504;DHT22;6316;48.118;-1.690;2024-03-08T05:10:11;8.20;99.90
12504;DHT22;6316;48.118;-1.690;2024-03-08T05:12:37;8.20;99.90
12504;DHT22;6316;48.118;-1.690;2024-03-08T05:15:06;8.20;99.90
12504;DHT22;6316;48.118;-1.690;2024-03-08T05:17:32;8.20;99.90
12504;DHT22;6316;48.118;-1.690;2024-03-08T05:19:58;8.20;99.90
12504;DHT22;6316;48.118;-1.690;2024-03-08T05:22:24;8.10;99.90
12504;DHT22;6316;48.118;-1.690;2024-03-08T05:24:50;8.20;99.90
12504;DHT22;6316;48.118;-1.690;2024-03-08T05:27:16;8.10;99.90
12504;DHT22;6316;48.118;-1.690;2024-03-08T05:29:41;8.10;99.90
12504;DHT22;6316;48.118;-1.690;2024-03-08T05:32:07;8.10;99.90
12504;DHT22;6316;48.118;-1.690;2024-03-08T05:34:33;8.10;99.90
12504;DHT22;6316;48.118;-1.690;2024-03-08T05:36:58;8.00;99.90
12504;DHT22;6316;48.118;-1.690;2024-03-08T05:39:25;8.00;99.90
12504;DHT22;6316;48.118;-1.690;2024-03-08T05:41:51;8.00;99.90
12504;DHT22;6316;48.118;-1.690;2024-03-08T05:44:16;8.00;99.90
12504;DHT22;6316;48.118;-1.690;2024-03-08T05:46:42;7.90;99.90
12504;DHT22;6316;48.118;-1.690;2024-03-08T05:49:08;7.90;99.90
12504;DHT22;6316;48.118;-1.690;2024-03-08T05:51:36;7.90;99.90
12504;DHT22;6316;48.118;-1.690;2024-03-08T05:54:03;7.90;99.90
12504;DHT22;6316;48.118;-1.690;2024-03-08T05:56:33;7.90;99.90
12504;DHT22;6316;48.118;-1.690;2024-03-08T05:58:59;7.90;99.90
12504;DHT22;6316;48.118;-1.690;2024-03-08T06:01:25;7.90;99.90
12504;DHT22;6316;48.118;-1.690;2024-03-08T06:03:52;7.90;99.90
12504;DHT22;6316;48.118;-1.690;2024-03-08T06:06:21;7.90;99.90
12504;DHT22;6316;48.118;-1.690;2024-03-08T06:08:47;7.90;99.90
12504;DHT22;6316;48.118;-1.690;2024-03-08T06:11:15;7.90;99.90
12504;DHT22;6316;48.118;-1.690;2024-03-08T06:13:41;7.90;99.90
12504;DHT22;6316;48.118;-1.690;2024-03-08T06:16:06;7.90;99.90
12504;DHT22;6316;48.118;-1.690;2024-03-08T06:18:34;8.00;99.90
12504;DHT22;6316;48.118;-1.690;2024-03-08T06:21:03;7.90;99.90
12504;DHT22;6316;48.118;-1.690;2024-03-08T06:23:31;7.90;99.90
12504;DHT22;6316;48.118;-1.690;2024-03-08T06:25:56;7.90;99.90
12504;DHT22;6316;48.118;-1.690;2024-03-08T06:28:23;7.90;99.90
12504;DHT22;6316;48.118;-1.690;2024-03-08T06:30:48;7.90;99.90
12504;DHT22;6316;48.118;-1.690;2024-03-08T06:33:16;7.90;99.90
12504;DHT22;6316;48.118;-1.690;2024-03-08T06:35:41;7.90;99.90
12504;DHT22;6316;48.118;-1.690;2024-03-08T06:38:07;7.90;99.90
12504;DHT22;6316;48.118;-1.690;2024-03-08T06:40:33;7.90;99.90
12504;DHT22;6316;48.118;-1.690;2024-03-08T06:42:58;7.90;99.90
12504;DHT22;6316;48.118;-1.690;2024-03-08T06:45:24;7.90;99.90
12504;DHT22;6316;48.118;-1.690;2024-03-08T06:47:51;7.90;99.90
12504;DHT22;6316;48.118;-1.690;2024-03-08T06:50:16;7.80;99.90
12504;DHT22;6316;48.118;-1.690;2024-03-08T06:52:42;7.80;99.90
12504;DHT22;6316;48.118;-1.690;2024-03-08T06:55:09;7.80;99.90
12504;DHT22;6316;48.118;-1.690;2024-03-08T06:57:41;7.80;99.90
12504;DHT22;6316;48.118;-1.690;2024-03-08T07:00:08;7.80;99.90
12504;DHT22;6316;48.118;-1.690;2024-03-08T07:02:42;7.80;99.90
12504;DHT22;6316;48.118;-1.690;2024-03-08T07:05:08;7.90;99.90
12504;DHT22;6316;48.118;-1.690;2024-03-08T07:07:36;7.80;99.90
12504;DHT22;6316;48.118;-1.690;2024-03-08T07:10:02;7.80;99.90
12504;DHT22;6316;48.118;-1.690;2024-03-08T07:12:28;7.80;99.90
12504;DHT22;6316;48.118;-1.690;2024-03-08T07:14:54;7.80;99.90
12504;DHT22;6316;48.118;-1.690;2024-03-08T07:17:20;7.80;99.90
12504;DHT22;6316;48.118;-1.690;2024-03-08T07:19:46;7.80;99.90
12504;DHT22;6316;48.118;-1.690;2024-03-08T07:22:11;7.80;99.90
12504;DHT22;6316;48.118;-1.690;2024-03-08T07:24:37;7.80;99.90
12504;DHT22;6316;48.118;-1.690;2024-03-08T07:27:23;7.80;99.90
12504;DHT22;6316;48.118;-1.690;2024-03-08T07:29:49;7.90;99.90
12504;DHT22;6316;48.118;-1.690;2024-03-08T07:32:14;7.90;99.90
12504;DHT22;6316;48.118;-1.690;2024-03-08T07:34:51;7.90;99.90
12504;DHT22;6316;48.118;-1.690;2024-03-08T07:37:17;7.90;99.90
12504;DHT22;6316;48.118;-1.690;2024-03-08T07:39:44;7.90;99.90
12504;DHT22;6316;48.118;-1.690;2024-03-08T07:42:10;7.90;99.90
12504;DHT22;6316;48.118;-1.690;2024-03-08T07:44:38;8.00;99.90
12504;DHT22;6316;48.118;-1.690;2024-03-08T07:47:04;8.00;99.90
12504;DHT22;6316;48.118;-1.690;2024-03-08T07:49:30;8.10;99.90
12504;DHT22;6316;48.118;-1.690;2024-03-08T07:51:58;8.10;99.90
12504;DHT22;6316;48.118;-1.690;2024-03-08T07:54:24;8.10;99.90
12504;DHT22;6316;48.118;-1.690;2024-03-08T07:56:51;8.10;99.90
12504;DHT22;6316;48.118;-1.690;2024-03-08T07:59:18;8.20;99.90
12504;DHT22;6316;48.118;-1.690;2024-03-08T08:01:44;8.20;99.90
12504;DHT22;6316;48.118;-1.690;2024-03-08T08:04:10;8.30;99.90
12504;DHT22;6316;48.118;-1.690;2024-03-08T08:06:38;8.30;99.90
12504;DHT22;6316;48.118;-1.690;2024-03-08T08:09:07;8.40;99.90
12504;DHT22;6316;48.118;-1.690;2024-03-08T08:11:40;8.40;99.90
12504;DHT22;6316;48.118;-1.690;2024-03-08T08:14:06;8.50;99.90
12504;DHT22;6316;48.118;-1.690;2024-03-08T08:16:35;8.50;99.90
12504;DHT22;6316;48.118;-1.690;2024-03-08T08:19:02;8.60;99.90
12504;DHT22;6316;48.118;-1.690;2024-03-08T08:21:36;8.70;99.90
12504;DHT22;6316;48.118;-1.690;2024-03-08T08:24:03;8.70;99.90
12504;DHT22;6316;48.118;-1.690;2024-03-08T08:26:29;8.70;99.90
12504;DHT22;6316;48.118;-1.690;2024-03-08T08:28:55;8.80;99.90
12504;DHT22;6316;48.118;-1.690;2024-03-08T08:31:20;8.90;99.90
12504;DHT22;6316;48.118;-1.690;2024-03-08T08:33:46;8.90;99.90
12504;DHT22;6316;48.118;-1.690;2024-03-08T08:36:13;9.00;99.90
12504;DHT22;6316;48.118;-1.690;2024-03-08T08:38:39;9.00;99.90
12504;DHT22;6316;48.118;-1.690;2024-03-08T08:41:05;9.00;99.90
12504;DHT22;6316;48.118;-1.690;2024-03-08T08:43:31;9.10;99.90
12504;DHT22;6316;48.118;-1.690;2024-03-08T08:45:59;9.20;99.90
12504;DHT22;6316;48.118;-1.690;2024-03-08T08:48:24;9.20;99.90
12504;DHT22;6316;48.118;-1.690;2024-03-08T08:50:50;9.20;99.90
12504;DHT22;6316;48.118;-1.690;2024-03-08T08:53:18;9.30;99.90
12504;DHT22;6316;48.118;-1.690;2024-03-08T08:55:44;9.40;99.90
12504;DHT22;6316;48.118;-1.690;2024-03-08T08:58:11;9.50;99.90
12504;DHT22;6316;48.118;-1.690;2024-03-08T09:00:37;9.50;99.90
12504;DHT22;6316;48.118;-1.690;2024-03-08T09:03:02;9.60;99.90
12504;DHT22;6316;48.118;-1.690;2024-03-08T09:05:28;9.60;99.90
12504;DHT22;6316;48.118;-1.690;2024-03-08T09:07:54;9.70;99.90
12504;DHT22;6316;48.118;-1.690;2024-03-08T09:10:20;9.80;99.90
12504;DHT22;6316;48.118;-1.690;2024-03-08T09:12:46;9.80;99.90
12504;DHT22;6316;48.118;-1.690;2024-03-08T09:15:13;9.90;99.90
12504;DHT22;6316;48.118;-1.690;2024-03-08T09:17:39;9.90;99.90
12504;DHT22;6316;48.118;-1.690;2024-03-08T09:20:08;10.00;99.90
12504;DHT22;6316;48.118;-1.690;2024-03-08T09:22:35;10.00;99.90
12504;DHT22;6316;48.118;-1.690;2024-03-08T09:25:01;10.10;99.90
12504;DHT22;6316;48.118;-1.690;2024-03-08T09:27:30;10.10;99.90
12504;DHT22;6316;48.118;-1.690;2024-03-08T09:29:56;10.20;99.90
12504;DHT22;6316;48.118;-1.690;2024-03-08T09:32:22;10.20;99.90
12504;DHT22;6316;48.118;-1.690;2024-03-08T09:34:48;10.30;99.90
12504;DHT22;6316;48.118;-1.690;2024-03-08T09:37:14;10.30;99.90
12504;DHT22;6316;48.118;-1.690;2024-03-08T09:39:39;10.40;99.90
12504;DHT22;6316;48.118;-1.690;2024-03-08T09:42:05;10.40;99.90
12504;DHT22;6316;48.118;-1.690;2024-03-08T09:44:31;10.40;99.90
12504;DHT22;6316;48.118;-1.690;2024-03-08T09:46:58;10.50;99.90
12504;DHT22;6316;48.118;-1.690;2024-03-08T09:49:24;10.50;99.90
12504;DHT22;6316;48.118;-1.690;2024-03-08T09:51:50;10.60;99.90
12504;DHT22;6316;48.118;-1.690;2024-03-08T09:54:17;10.60;99.90
12504;DHT22;6316;48.118;-1.690;2024-03-08T09:56:43;10.60;99.90
12504;DHT22;6316;48.118;-1.690;2024-03-08T09:59:10;10.70;99.90
12504;DHT22;6316;48.118;-1.690;2024-03-08T10:01:51;10.80;99.90
12504;DHT22;6316;48.118;-1.690;2024-03-08T10:04:18;10.80;99.90
12504;DHT22;6316;48.118;-1.690;2024-03-08T10:06:45;10.90;99.90
12504;DHT22;6316;48.118;-1.690;2024-03-08T10:09:12;11.00;99.90
12504;DHT22;6316;48.118;-1.690;2024-03-08T10:11:39;11.00;99.90
12504;DHT22;6316;48.118;-1.690;2024-03-08T10:14:05;11.10;99.90
12504;DHT22;6316;48.118;-1.690;2024-03-08T10:16:32;11.10;99.90
12504;DHT22;6316;48.118;-1.690;2024-03-08T10:18:59;11.20;99.90
12504;DHT22;6316;48.118;-1.690;2024-03-08T10:21:26;11.30;99.90
12504;DHT22;6316;48.118;-1.690;2024-03-08T10:23:51;11.30;99.90
12504;DHT22;6316;48.118;-1.690;2024-03-08T10:26:18;11.40;99.90
12504;DHT22;6316;48.118;-1.690;2024-03-08T10:28:47;11.40;99.90
12504;DHT22;6316;48.118;-1.690;2024-03-08T10:31:14;11.40;99.90
12504;DHT22;6316;48.118;-1.690;2024-03-08T10:33:40;11.50;99.90
12504;DHT22;6316;48.118;-1.690;2024-03-08T10:36:10;11.60;99.90
12504;DHT22;6316;48.118;-1.690;2024-03-08T10:38:38;11.70;99.90
12504;DHT22;6316;48.118;-1.690;2024-03-08T10:41:08;11.70;99.90
12504;DHT22;6316;48.118;-1.690;2024-03-08T10:46:37;11.80;99.90
12504;DHT22;6316;48.118;-1.690;2024-03-08T10:49:10;11.90;99.90
12504;DHT22;6316;48.118;-1.690;2024-03-08T10:51:38;11.90;99.90
12504;DHT22;6316;48.118;-1.690;2024-03-08T10:54:09;12.00;99.90
12504;DHT22;6316;48.118;-1.690;2024-03-08T10:56:35;12.00;99.90
12504;DHT22;6316;48.118;-1.690;2024-03-08T10:59:01;12.10;99.90
12504;DHT22;6316;48.118;-1.690;2024-03-08T11:01:29;12.20;99.90
12504;DHT22;6316;48.118;-1.690;2024-03-08T11:03:55;12.30;99.90
12504;DHT22;6316;48.118;-1.690;2024-03-08T11:09:03;12.30;99.90
12504;DHT22;6316;48.118;-1.690;2024-03-08T11:11:33;12.40;99.90
12504;DHT22;6316;48.118;-1.690;2024-03-08T11:14:03;12.40;99.90
12504;DHT22;6316;48.118;-1.690;2024-03-08T11:19:26;12.40;99.90
12504;DHT22;6316;48.118;-1.690;2024-03-08T11:21:58;12.40;99.90
12504;DHT22;6316;48.118;-1.690;2024-03-08T11:24:23;12.40;99.90
12504;DHT22;6316;48.118;-1.690;2024-03-08T11:26:49;12.40;99.90
12504;DHT22;6316;48.118;-1.690;2024-03-08T11:32:17;12.40;99.90
12504;DHT22;6316;48.118;-1.690;2024-03-08T11:34:49;12.50;99.90
12504;DHT22;6316;48.118;-1.690;2024-03-08T11:37:20;12.50;99.90
12504;DHT22;6316;48.118;-1.690;2024-03-08T11:39:54;12.60;99.90
12504;DHT22;6316;48.118;-1.690;2024-03-08T11:42:25;12.70;99.90
12504;DHT22;6316;48.118;-1.690;2024-03-08T11:44:52;12.90;99.90
12504;DHT22;6316;48.118;-1.690;2024-03-08T11:47:18;13.00;99.90
12504;DHT22;6316;48.118;-1.690;2024-03-08T11:49:45;13.00;99.90
12504;DHT22;6316;48.118;-1.690;2024-03-08T11:52:17;13.10;99.90
12504;DHT22;6316;48.118;-1.690;2024-03-08T11:54:51;13.10;99.90
12504;DHT22;6316;48.118;-1.690;2024-03-08T11:57:18;13.10;99.90
12504;DHT22;6316;48.118;-1.690;2024-03-08T11:59:52;13.00;99.90
12504;DHT22;6316;48.118;-1.690;2024-03-08T12:02:18;13.00;99.90
12504;DHT22;6316;48.118;-1.690;2024-03-08T12:04:47;13.00;99.90
12504;DHT22;6316;48.118;-1.690;2024-03-08T12:07:13;13.00;99.90
12504;DHT22;6316;48.118;-1.690;2024-03-08T12:09:42;13.10;99.90
12504;DHT22;6316;48.118;-1.690;2024-03-08T12:12:12;13.10;99.90
12504;DHT22;6316;48.118;-1.690;2024-03-08T12:14:38;13.10;99.90
12504;DHT22;6316;48.118;-1.690;2024-03-08T12:17:04;13.20;99.90
12504;DHT22;6316;48.118;-1.690;2024-03-08T12:19:31;13.10;99.90
12504;DHT22;6316;48.118;-1.690;2024-03-08T12:22:07;13.10;99.90
12504;DHT22;6316;48.118;-1.690;2024-03-08T12:24:34;13.10;99.90
12504;DHT22;6316;48.118;-1.690;2024-03-08T12:27:00;13.10;99.90
12504;DHT22;6316;48.118;-1.690;2024-03-08T12:29:26;13.10;99.90
12504;DHT22;6316;48.118;-1.690;2024-03-08T12:31:58;13.10;99.90
12504;DHT22;6316;48.118;-1.690;2024-03-08T12:34:27;13.10;99.90
12504;DHT22;6316;48.118;-1.690;2024-03-08T12:36:54;13.10;99.90
12504;DHT22;6316;48.118;-1.690;2024-03-08T12:39:21;13.10;99.90
12504;DHT22;6316;48.118;-1.690;2024-03-08T12:41:53;13.20;99.90
12504;DHT22;6316;48.118;-1.690;2024-03-08T12:44:20;13.30;99.90
12504;DHT22;6316;48.118;-1.690;2024-03-08T12:46:49;13.30;99.90
12504;DHT22;6316;48.118;-1.690;2024-03-08T12:49:15;13.30;99.90
12504;DHT22;6316;48.118;-1.690;2024-03-08T12:51:44;13.40;99.90
12504;DHT22;6316;48.118;-1.690;2024-03-08T12:54:10;13.50;99.90
12504;DHT22;6316;48.118;-1.690;2024-03-08T12:56:36;13.50;99.90
12504;DHT22;6316;48.118;-1.690;2024-03-08T12:59:04;13.60;99.90
12504;DHT22;6316;48.118;-1.690;2024-03-08T13:01:30;13.80;99.90
12504;DHT22;6316;48.118;-1.690;2024-03-08T13:03:58;13.80;99.90
12504;DHT22;6316;48.118;-1.690;2024-03-08T13:06:24;13.90;99.90
12504;DHT22;6316;48.118;-1.690;2024-03-08T13:08:52;13.90;99.90
12504;DHT22;6316;48.118;-1.690;2024-03-08T13:11:19;14.00;99.90
12504;DHT22;6316;48.118;-1.690;2024-03-08T13:13:46;14.00;99.90
12504;DHT22;6316;48.118;-1.690;2024-03-08T13:16:12;14.00;99.90
12504;DHT22;6316;48.118;-1.690;2024-03-08T13:18:41;14.00;99.90
12504;DHT22;6316;48.118;-1.690;2024-03-08T13:21:10;14.00;99.90
12504;DHT22;6316;48.118;-1.690;2024-03-08T13:23:38;13.90;99.90
12504;DHT22;6316;48.118;-1.690;2024-03-08T13:26:11;13.90;99.90
12504;DHT22;6316;48.118;-1.690;2024-03-08T13:28:47;13.90;99.90
12504;DHT22;6316;48.118;-1.690;2024-03-08T13:31:14;13.90;99.90
12504;DHT22;6316;48.118;-1.690;2024-03-08T13:33:40;13.90;99.90
12504;DHT22;6316;48.118;-1.690;2024-03-08T13:36:08;14.00;99.90
12504;DHT22;6316;48.118;-1.690;2024-03-08T13:38:41;14.00;99.90
12504;DHT22;6316;48.118;-1.690;2024-03-08T13:41:08;14.00;99.90
12504;DHT22;6316;48.118;-1.690;2024-03-08T13:43:34;14.10;99.90
12504;DHT22;6316;48.118;-1.690;2024-03-08T13:46:02;14.10;99.90
12504;DHT22;6316;48.118;-1.690;2024-03-08T13:48:28;14.20;99.90
12504;DHT22;6316;48.118;-1.690;2024-03-08T13:50:53;14.10;99.90
12504;DHT22;6316;48.118;-1.690;2024-03-08T13:53:20;14.10;99.90
12504;DHT22;6316;48.118;-1.690;2024-03-08T13:55:46;14.10;99.90
12504;DHT22;6316;48.118;-1.690;2024-03-08T13:58:12;14.10;99.90
12504;DHT22;6316;48.118;-1.690;2024-03-08T14:00:39;14.00;99.90
12504;DHT22;6316;48.118;-1.690;2024-03-08T14:03:06;14.10;99.90
12504;DHT22;6316;48.118;-1.690;2024-03-08T14:05:32;14.10;99.90
12504;DHT22;6316;48.118;-1.690;2024-03-08T14:08:02;14.10;99.90
12504;DHT22;6316;48.118;-1.690;2024-03-08T14:10:32;14.10;99.90
12504;DHT22;6316;48.118;-1.690;2024-03-08T14:12:58;14.00;99.90
12504;DHT22;6316;48.118;-1.690;2024-03-08T14:15:25;14.00;99.90
12504;DHT22;6316;48.118;-1.690;2024-03-08T14:17:55;14.10;99.90
12504;DHT22;6316;48.118;-1.690;2024-03-08T14:20:21;14.00;99.90
12504;DHT22;6316;48.118;-1.690;2024-03-08T14:22:56;14.00;99.90
12504;DHT22;6316;48.118;-1.690;2024-03-08T14:25:25;14.00;99.90
12504;DHT22;6316;48.118;-1.690;2024-03-08T14:27:52;13.90;99.90
12504;DHT22;6316;48.118;-1.690;2024-03-08T14:30:23;13.90;99.90
12504;DHT22;6316;48.118;-1.690;2024-03-08T14:33:04;14.00;99.90
12504;DHT22;6316;48.118;-1.690;2024-03-08T14:35:38;14.00;99.90
12504;DHT22;6316;48.118;-1.690;2024-03-08T14:38:04;14.00;99.90
12504;DHT22;6316;48.118;-1.690;2024-03-08T14:40:30;14.00;99.90
12504;DHT22;6316;48.118;-1.690;2024-03-08T14:42:56;14.00;99.90
12504;DHT22;6316;48.118;-1.690;2024-03-08T14:45:22;14.10;99.90
12504;DHT22;6316;48.118;-1.690;2024-03-08T14:47:50;14.10;99.90
12504;DHT22;6316;48.118;-1.690;2024-03-08T14:50:19;14.10;99.90
12504;DHT22;6316;48.118;-1.690;2024-03-08T14:52:46;14.10;99.90
12504;DHT22;6316;48.118;-1.690;2024-03-08T14:55:14;14.10;99.90
12504;DHT22;6316;48.118;-1.690;2024-03-08T14:57:43;14.10;99.90
12504;DHT22;6316;48.118;-1.690;2024-03-08T15:00:14;14.10;99.90
12504;DHT22;6316;48.118;-1.690;2024-03-08T15:02:51;14.10;99.90
12504;DHT22;6316;48.118;-1.690;2024-03-08T15:05:19;14.10;99.90
12504;DHT22;6316;48.118;-1.690;2024-03-08T15:07:47;14.10;99.90
12504;DHT22;6316;48.118;-1.690;2024-03-08T15:10:14;14.10;99.90
12504;DHT22;6316;48.118;-1.690;2024-03-08T15:12:44;14.00;99.90
12504;DHT22;6316;48.118;-1.690;2024-03-08T15:15:12;14.00;99.90
12504;DHT22;6316;48.118;-1.690;2024-03-08T15:17:39;14.00;99.90
12504;DHT22;6316;48.118;-1.690;2024-03-08T15:20:08;14.00;99.90
12504;DHT22;6316;48.118;-1.690;2024-03-08T15:22:50;14.00;99.90
12504;DHT22;6316;48.118;-1.690;2024-03-08T15:25:17;14.00;99.90
12504;DHT22;6316;48.118;-1.690;2024-03-08T15:27:48;14.00;99.90
12504;DHT22;6316;48.118;-1.690;2024-03-08T15:30:14;14.00;99.90
12504;DHT22;6316;48.118;-1.690;2024-03-08T15:32:51;13.90;99.90
12504;DHT22;6316;48.118;-1.690;2024-03-08T15:35:17;13.90;99.90
12504;DHT22;6316;48.118;-1.690;2024-03-08T15:37:44;13.80;99.90
12504;DHT22;6316;48.118;-1.690;2024-03-08T15:40:13;13.80;99.90
12504;DHT22;6316;48.118;-1.690;2024-03-08T15:45:15;13.70;99.90
12504;DHT22;6316;48.118;-1.690;2024-03-08T15:47:42;13.60;99.90
12504;DHT22;6316;48.118;-1.690;2024-03-08T15:50:09;13.60;99.90
12504;DHT22;6316;48.118;-1.690;2024-03-08T15:52:44;13.60;99.90
12504;DHT22;6316;48.118;-1.690;2024-03-08T15:55:14;13.60;99.90